createdAt,value
2019-05-07T00:02:29.543Z,78.20
2019-05-07T00:07:34.597Z,77.90
2019-05-07T00:12:38.886Z,79.10
2019-05-07T00:17:43.036Z,78.40
2019-05-07T00:22:47.563Z,78.40
2019-05-07T00:27:52.402Z,80.00
2019-05-07T00:32:56.576Z,79.50
2019-05-07T00:38:05.412Z,79.40
2019-05-07T00:43:14.122Z,79.10
2019-05-07T00:48:18.515Z,79.70
2019-05-07T00:53:23.774Z,79.40
2019-05-07T00:58:27.931Z,79.00
2019-05-07T01:03:32.830Z,80.20
2019-05-07T01:08:37.010Z,80.40
2019-05-07T01:13:43.064Z,80.10
2019-05-07T01:18:47.413Z,79.70
2019-05-07T01:23:52.331Z,79.60
2019-05-07T01:28:59.648Z,80.90
2019-05-07T01:34:23.096Z,80.20
2019-05-07T01:39:27.345Z,81.10
2019-05-07T01:44:32.571Z,81.10
2019-05-07T01:49:37.214Z,80.20
2019-05-07T01:54:42.563Z,80.10
2019-05-07T01:59:47.167Z,80.00
2019-05-07T02:05:04.814Z,81.00
2019-05-07T02:10:16.307Z,80.40
2019-05-07T02:15:22.508Z,80.60
2019-05-07T02:20:26.521Z,80.30
2019-05-07T02:25:32.765Z,80.60
2019-05-07T02:30:37.444Z,80.60
2019-05-07T02:35:43.965Z,81.10
2019-05-07T02:40:53.427Z,81.00
2019-05-07T02:46:36.022Z,81.40
2019-05-07T02:51:48.952Z,81.00
2019-05-07T02:56:53.538Z,81.30
2019-05-07T03:01:56.935Z,81.40
2019-05-07T03:07:13.179Z,82.00
2019-05-07T03:12:17.909Z,81.60
2019-05-07T03:17:24.661Z,81.70
2019-05-07T03:22:29.277Z,81.90
2019-05-07T03:27:34.390Z,82.00
2019-05-07T03:32:47.700Z,83.60
2019-05-07T03:37:49.284Z,82.20
2019-05-07T03:42:53.795Z,81.80
2019-05-07T03:48:13.604Z,82.00
2019-05-07T03:53:16.849Z,82.50
2019-05-07T03:58:23.491Z,82.20
2019-05-07T04:03:27.167Z,81.80
2019-05-07T04:08:33.478Z,82.40
2019-05-07T04:13:36.927Z,83.00
2019-05-07T04:18:43.684Z,82.30
2019-05-07T04:23:48.703Z,81.70
2019-05-07T04:29:05.967Z,82.30
2019-05-07T04:34:18.986Z,82.50
2019-05-07T04:39:23.504Z,83.60
2019-05-07T04:44:27.897Z,82.50
2019-05-07T04:49:33.149Z,81.60
2019-05-07T04:54:37.645Z,82.70
2019-05-07T04:59:42.834Z,81.70
2019-05-07T05:04:47.385Z,81.70
2019-05-07T05:09:53.142Z,83.00
2019-05-07T05:14:57.598Z,82.60
2019-05-07T05:20:03.553Z,82.50
2019-05-07T05:25:26.841Z,81.50
2019-05-07T05:30:44.433Z,80.50
2019-05-07T05:35:49.282Z,81.40
2019-05-07T05:40:53.798Z,80.70
2019-05-07T05:45:58.654Z,80.10
2019-05-07T05:51:24.574Z,81.10
2019-05-07T05:56:37.465Z,79.70
2019-05-07T06:02:04.476Z,82.00
2019-05-07T06:07:14.705Z,81.30
2019-05-07T06:12:38.006Z,80.00
2019-05-07T06:18:17.676Z,79.90
2019-05-07T06:23:33.024Z,79.80
2019-05-07T06:28:37.233Z,79.00
2019-05-07T06:33:42.972Z,78.60
2019-05-07T06:39:03.140Z,77.70
2019-05-07T06:44:12.787Z,76.60
2019-05-07T06:49:18.462Z,76.30
2019-05-07T06:54:22.776Z,76.20
2019-05-07T06:59:35.268Z,75.10
2019-05-07T07:04:46.660Z,75.50
2019-05-07T07:10:03.511Z,75.00
2019-05-07T07:15:08.569Z,74.00
2019-05-07T07:20:13.022Z,73.60
2019-05-07T07:25:17.264Z,72.70
2019-05-07T07:30:32.592Z,71.30
2019-05-07T07:35:36.975Z,70.60
2019-05-07T07:40:45.150Z,69.80
2019-05-07T07:45:49.194Z,69.80
2019-05-07T07:50:53.804Z,68.60
2019-05-07T07:56:15.240Z,64.90
2019-05-07T08:01:42.163Z,67.10
2019-05-07T08:06:48.143Z,64.90
2019-05-07T08:11:52.764Z,64.60
2019-05-07T08:16:56.179Z,64.30
2019-05-07T08:22:02.598Z,64.30
2019-05-07T08:27:06.302Z,63.40
2019-05-07T08:32:22.421Z,62.30
2019-05-07T08:37:27.059Z,62.90
2019-05-07T08:42:32.045Z,62.20
2019-05-07T08:47:42.530Z,59.50
2019-05-07T08:52:46.582Z,61.20
2019-05-07T08:57:52.463Z,60.40
2019-05-07T09:02:56.882Z,59.80
2019-05-07T09:08:02.278Z,59.20
2019-05-07T09:13:06.704Z,58.60
2019-05-07T09:18:12.428Z,55.40
2019-05-07T09:23:16.862Z,54.10
2019-05-07T09:28:22.310Z,55.70
2019-05-07T09:33:39.049Z,53.20
2019-05-07T09:38:56.106Z,47.30
2019-05-07T09:43:51.733Z,51.50
2019-05-07T09:48:55.517Z,48.60
2019-05-07T09:53:59.799Z,49.20
2019-05-07T09:59:04.046Z,51.80
2019-05-07T10:04:10.474Z,52.80
2019-05-07T10:09:15.109Z,53.00
2019-05-07T10:14:18.501Z,53.00
2019-05-07T10:19:22.856Z,52.40
2019-05-07T10:24:26.922Z,44.70
2019-05-07T10:29:32.585Z,42.40
2019-05-07T10:34:36.695Z,44.70
2019-05-07T10:39:42.903Z,43.10
2019-05-07T10:45:07.573Z,40.80
2019-05-07T10:50:38.900Z,39.60
2019-05-07T10:55:36.354Z,45.40
2019-05-07T11:00:42.107Z,47.70
2019-05-07T11:05:46.580Z,48.50
2019-05-07T11:10:52.157Z,50.20
2019-05-07T11:16:05.580Z,49.10
2019-05-07T11:21:11.862Z,50.50
2019-05-07T11:26:16.134Z,50.70
2019-05-07T11:31:22.366Z,45.40
2019-05-07T11:36:26.729Z,49.10
2019-05-07T11:41:38.001Z,45.30
2019-05-07T11:47:03.101Z,47.90
2019-05-07T11:52:14.886Z,44.90
2019-05-07T11:57:18.185Z,43.20
2019-05-07T12:02:22.748Z,44.20
2019-05-07T12:07:27.067Z,47.00
2019-05-07T12:12:32.568Z,45.80
2019-05-07T12:17:36.762Z,47.00
2019-05-07T12:22:47.086Z,49.50
2019-05-07T12:27:52.885Z,47.20
2019-05-07T12:33:08.229Z,47.30
2019-05-07T12:38:12.839Z,47.70
2019-05-07T12:43:16.115Z,49.60
2019-05-07T12:48:21.742Z,48.20
2019-05-07T12:53:43.460Z,48.90
2019-05-07T12:58:47.554Z,49.00
2019-05-07T13:04:02.502Z,49.40
2019-05-07T13:09:07.271Z,49.40
2019-05-07T13:14:12.587Z,50.10
2019-05-07T13:19:17.084Z,49.50
2019-05-07T13:24:22.796Z,49.40
2019-05-07T13:29:27.078Z,47.00
2019-05-07T13:34:33.793Z,49.40
2019-05-07T13:39:45.598Z,50.60
2019-05-07T13:45:03.517Z,49.70
2019-05-07T13:50:08.069Z,49.10
2019-05-07T13:55:14.044Z,50.10
2019-05-07T14:00:26.897Z,49.70
2019-05-07T14:05:32.345Z,49.70
2019-05-07T14:10:36.704Z,49.40
2019-05-07T14:15:43.000Z,48.90
2019-05-07T14:20:47.347Z,48.60
2019-05-07T14:25:52.657Z,50.10
2019-05-07T14:30:58.251Z,48.30
2019-05-07T14:36:07.976Z,49.20
2019-05-07T14:41:13.610Z,51.60
2019-05-07T14:46:20.130Z,51.50
2019-05-07T14:51:24.345Z,52.90
2019-05-07T14:56:28.727Z,53.40
2019-05-07T15:01:34.175Z,50.60
2019-05-07T15:06:37.304Z,52.70
2019-05-07T15:11:42.455Z,52.00
2019-05-07T15:16:47.728Z,52.80
2019-05-07T15:21:55.174Z,52.60
2019-05-07T15:27:03.552Z,53.40
2019-05-07T15:32:12.659Z,53.30
2019-05-07T15:37:16.781Z,52.80
2019-05-07T15:42:22.150Z,53.50
2019-05-07T15:47:34.388Z,52.40
2019-05-07T15:53:08.362Z,51.90
2019-05-07T15:58:14.295Z,52.80
2019-05-07T16:03:23.576Z,54.00
2019-05-07T16:08:31.894Z,54.50
2019-05-07T16:13:37.859Z,54.80
2019-05-07T16:19:01.926Z,55.10
2019-05-07T16:24:06.404Z,54.70
2019-05-07T16:29:13.029Z,55.80
2019-05-07T16:34:16.594Z,54.80
2019-05-07T16:39:22.182Z,55.50
2019-05-07T16:44:26.395Z,55.80
2019-05-07T16:49:31.869Z,55.70
2019-05-07T16:54:36.437Z,56.00
2019-05-07T16:59:42.721Z,55.60
2019-05-07T17:05:05.563Z,56.10
2019-05-07T17:10:11.702Z,56.50
2019-05-07T17:15:16.528Z,54.90
2019-05-07T17:20:22.012Z,55.70
2019-05-07T17:25:38.138Z,56.60
2019-05-07T17:30:42.286Z,56.70
2019-05-07T17:35:46.430Z,57.80
2019-05-07T17:40:52.130Z,58.40
2019-05-07T17:45:56.769Z,58.50
2019-05-07T17:51:25.897Z,59.10
2019-05-07T17:56:31.914Z,59.00
2019-05-07T18:01:54.169Z,60.70
2019-05-07T18:07:00.418Z,61.90
2019-05-07T18:12:05.065Z,62.20
2019-05-07T18:17:35.140Z,62.90
2019-05-07T18:22:39.103Z,63.40
2019-05-07T18:27:43.192Z,63.80
2019-05-07T18:32:53.246Z,64.90
2019-05-07T18:37:57.667Z,65.30
2019-05-07T18:43:03.054Z,65.50
2019-05-07T18:48:07.263Z,65.40
2019-05-07T18:53:12.248Z,66.80
2019-05-07T18:58:16.547Z,67.70
2019-05-07T19:03:21.826Z,69.00
2019-05-07T19:08:26.341Z,69.90
2019-05-07T19:13:32.497Z,68.40
2019-05-07T19:18:36.219Z,69.10
2019-05-07T19:23:42.359Z,70.70
2019-05-07T19:28:46.343Z,70.90
2019-05-07T19:33:52.521Z,69.50
2019-05-07T19:38:58.732Z,70.90
2019-05-07T19:44:02.802Z,71.80
2019-05-07T19:49:07.305Z,72.10
2019-05-07T19:54:10.569Z,73.60
2019-05-07T19:59:14.898Z,73.80
2019-05-07T20:04:20.598Z,73.60
2019-05-07T20:09:29.385Z,74.10
2019-05-07T20:14:36.243Z,75.60
2019-05-07T20:19:41.770Z,74.10
2019-05-07T20:24:47.017Z,74.70
2019-05-07T20:29:52.234Z,75.50
2019-05-07T20:34:56.544Z,75.60
2019-05-07T20:40:03.042Z,75.00
2019-05-07T20:45:07.396Z,76.60
2019-05-07T20:50:12.712Z,76.50
2019-05-07T20:55:33.888Z,78.10
2019-05-07T21:00:37.065Z,77.20
2019-05-07T21:05:42.158Z,78.40
2019-05-07T21:10:46.454Z,78.10
2019-05-07T21:15:52.683Z,77.90
2019-05-07T21:20:57.084Z,85.10
2019-05-07T21:26:02.197Z,83.20
2019-05-07T21:31:06.461Z,85.20
2019-05-07T21:36:12.099Z,84.60
2019-05-07T21:41:16.436Z,83.80
2019-05-07T21:46:22.235Z,84.00
2019-05-07T21:51:26.479Z,82.40
2019-05-07T21:56:41.247Z,85.80
2019-05-07T22:01:47.321Z,82.50
2019-05-07T22:06:52.374Z,80.80
2019-05-07T22:11:57.971Z,80.70
2019-05-07T22:17:02.161Z,80.90
2019-05-07T22:22:06.326Z,79.60
2019-05-07T22:27:12.653Z,84.30
2019-05-07T22:32:27.623Z,85.10
2019-05-07T22:37:32.515Z,81.20
2019-05-07T22:42:37.095Z,80.10
2019-05-07T22:47:42.050Z,81.90
2019-05-07T22:52:46.543Z,86.70
2019-05-07T22:58:12.341Z,84.20
2019-05-07T23:03:15.896Z,83.80
2019-05-07T23:08:22.135Z,82.70
2019-05-07T23:13:25.872Z,84.40
2019-05-07T23:18:31.875Z,86.50
2019-05-07T23:23:35.984Z,85.20
2019-05-07T23:28:41.873Z,87.70
2019-05-07T23:33:46.559Z,84.40
2019-05-07T23:38:52.068Z,85.10
2019-05-07T23:44:14.155Z,83.50
2019-05-07T23:49:18.467Z,84.00
2019-05-07T23:54:23.140Z,89.00
2019-05-07T23:59:27.516Z,90.80
